createdAt,value
2023-03-17T00:00:59.300Z,101255.89
2023-03-17T00:07:14.997Z,101258.40
2023-03-17T00:09:47.656Z,101256.83
2023-03-17T00:12:27.173Z,101255.23
2023-03-17T00:15:16.968Z,101252.52
2023-03-17T00:17:57.934Z,101252.86
2023-03-17T00:20:34.294Z,101251.75
2023-03-17T00:23:04.164Z,101251.10
2023-03-17T00:25:42.905Z,101251.99
2023-03-17T00:28:19.094Z,101247.91
2023-03-17T00:30:56.033Z,101252.23
2023-03-17T00:33:28.541Z,101252.91
2023-03-17T00:35:59.624Z,101253.63
2023-03-17T00:38:31.091Z,101253.48
2023-03-17T00:41:03.162Z,101253.83
2023-03-17T00:43:33.774Z,101251.98
2023-03-17T00:46:10.631Z,101254.82
2023-03-17T00:48:41.012Z,101252.78
2023-03-17T00:51:10.190Z,101253.08
2023-03-17T00:53:40.153Z,101255.17
2023-03-17T00:56:16.455Z,101258.80
2023-03-17T00:58:48.460Z,101262.34
2023-03-17T01:01:20.782Z,101262.53
2023-03-17T01:03:56.946Z,101260.05
2023-03-17T01:06:26.890Z,101262.67
2023-03-17T01:09:06.441Z,101266.66
2023-03-17T01:11:41.640Z,101264.23
2023-03-17T01:14:11.658Z,101268.29
2023-03-17T01:16:41.381Z,101262.75
2023-03-17T01:19:15.096Z,101266.13
2023-03-17T01:21:46.414Z,101268.11
2023-03-17T01:24:17.453Z,101266.89
2023-03-17T01:26:50.372Z,101267.02
2023-03-17T01:29:19.759Z,101265.48
2023-03-17T01:31:50.130Z,101266.40
2023-03-17T01:34:22.075Z,101268.08
2023-03-17T01:36:52.911Z,101272.77
2023-03-17T01:39:39.368Z,101274.02
2023-03-17T01:42:09.890Z,101276.42
2023-03-17T01:45:03.427Z,101278.41
2023-03-17T01:47:33.272Z,101276.58
2023-03-17T01:50:11.514Z,101277.67
2023-03-17T01:52:41.048Z,101276.13
2023-03-17T01:55:14.693Z,101280.09
2023-03-17T01:57:50.121Z,101284.48
2023-03-17T02:00:24.496Z,101290.46
2023-03-17T02:02:57.819Z,101287.89
2023-03-17T02:05:30.692Z,101282.67
2023-03-17T02:08:00.201Z,101283.83
2023-03-17T02:10:31.980Z,101289.11
2023-03-17T02:13:05.083Z,101288.52
2023-03-17T02:15:39.877Z,101289.45
2023-03-17T02:18:11.874Z,101290.38
2023-03-17T02:21:18.203Z,101293.95
2023-03-17T02:23:49.795Z,101293.20
2023-03-17T02:26:34.109Z,101298.46
2023-03-17T02:29:23.393Z,101300.89
2023-03-17T02:32:11.255Z,101300.38
2023-03-17T02:34:41.982Z,101304.02
2023-03-17T02:37:11.723Z,101305.95
2023-03-17T02:39:43.054Z,101313.74
2023-03-17T02:42:13.926Z,101320.94
2023-03-17T02:44:45.099Z,101319.05
2023-03-17T02:47:15.498Z,101319.09
2023-03-17T02:49:46.053Z,101325.34
2023-03-17T02:52:16.208Z,101326.21
2023-03-17T02:54:47.683Z,101326.13
2023-03-17T02:57:18.326Z,101331.95
2023-03-17T02:59:48.251Z,101332.91
2023-03-17T03:02:20.293Z,101335.10
2023-03-17T03:04:50.639Z,101337.31
2023-03-17T03:07:20.330Z,101340.17
2023-03-17T03:09:49.662Z,101341.42
2023-03-17T03:12:19.025Z,101343.54
2023-03-17T03:14:54.034Z,101343.30
2023-03-17T03:17:33.782Z,101347.15
2023-03-17T03:20:03.788Z,101348.77
2023-03-17T03:22:33.077Z,101349.90
2023-03-17T03:25:01.709Z,101346.88
2023-03-17T03:27:32.094Z,101351.16
2023-03-17T03:30:04.710Z,101349.20
2023-03-17T03:32:34.045Z,101358.28
2023-03-17T03:35:03.780Z,101349.95
2023-03-17T03:37:33.160Z,101353.61
2023-03-17T03:40:03.676Z,101357.55
2023-03-17T03:42:34.102Z,101361.29
2023-03-17T03:45:05.165Z,101366.73
2023-03-17T03:48:21.673Z,101361.40
2023-03-17T03:50:34.492Z,101362.77
2023-03-17T03:53:04.205Z,101365.04
2023-03-17T03:55:34.324Z,101368.77
2023-03-17T03:58:07.352Z,101378.83
2023-03-17T04:00:36.749Z,101371.85
2023-03-17T04:03:08.083Z,101372.61
2023-03-17T04:05:37.680Z,101376.18
2023-03-17T04:08:10.659Z,101379.86
2023-03-17T04:10:43.449Z,101387.21
2023-03-17T04:13:29.802Z,101388.14
2023-03-17T04:16:06.551Z,101391.10
2023-03-17T04:18:40.673Z,101391.33
2023-03-17T04:21:18.516Z,101392.77
2023-03-17T04:23:51.014Z,101394.30
2023-03-17T04:26:22.555Z,101398.99
2023-03-17T04:28:59.434Z,101401.83
2023-03-17T04:31:34.113Z,101404.15
2023-03-17T04:34:04.225Z,101408.62
2023-03-17T04:36:36.728Z,101412.18
2023-03-17T04:39:06.855Z,101407.52
2023-03-17T04:41:40.487Z,101411.39
2023-03-17T04:44:10.750Z,101415.27
2023-03-17T04:46:41.740Z,101415.05
2023-03-17T04:49:11.636Z,101419.98
2023-03-17T04:51:41.544Z,101427.52
2023-03-17T04:54:11.637Z,101430.08
2023-03-17T04:56:40.732Z,101431.01
2023-03-17T04:59:10.968Z,101431.83
2023-03-17T05:13:14.226Z,101442.54
2023-03-17T05:15:53.714Z,101446.20
2023-03-17T05:18:25.137Z,101452.14
2023-03-17T05:20:55.207Z,101451.25
2023-03-17T05:23:29.194Z,101451.47
2023-03-17T05:25:58.887Z,101449.59
2023-03-17T05:28:28.675Z,101452.56
2023-03-17T05:31:05.226Z,101456.18
2023-03-17T05:33:36.927Z,101455.17
2023-03-17T05:36:08.166Z,101457.17
2023-03-17T05:38:40.106Z,101462.20
2023-03-17T05:41:11.810Z,101466.65
2023-03-17T05:43:43.023Z,101467.63
2023-03-17T05:46:13.237Z,101465.00
2023-03-17T05:48:48.018Z,101469.96
2023-03-17T05:51:20.096Z,101473.11
2023-03-17T05:53:58.688Z,101484.71
2023-03-17T05:56:33.257Z,101486.13
2023-03-17T05:59:09.731Z,101489.35
2023-03-17T06:01:39.469Z,101491.40
2023-03-17T06:04:15.237Z,101495.23
2023-03-17T06:06:54.856Z,101498.55
2023-03-17T06:09:27.892Z,101500.35
2023-03-17T06:11:59.229Z,101499.02
2023-03-17T06:14:29.768Z,101502.29
2023-03-17T06:16:59.034Z,101502.19
2023-03-17T06:19:33.412Z,101507.36
2023-03-17T06:22:11.094Z,101510.27
2023-03-17T06:24:41.055Z,101514.44
2023-03-17T06:27:16.228Z,101518.48
2023-03-17T06:29:45.762Z,101516.56
2023-03-17T06:32:20.751Z,101516.86
2023-03-17T06:34:51.311Z,101522.61
2023-03-17T06:37:27.280Z,101525.48
2023-03-17T06:39:57.956Z,101523.26
2023-03-17T06:42:27.465Z,101523.99
2023-03-17T06:44:57.597Z,101524.06
2023-03-17T06:47:28.013Z,101523.98
2023-03-17T06:49:58.741Z,101521.22
2023-03-17T06:52:28.602Z,101520.15
2023-03-17T06:54:58.977Z,101525.81
2023-03-17T06:57:41.963Z,101524.41
2023-03-17T07:00:21.194Z,101525.34
2023-03-17T07:02:56.966Z,101526.65
2023-03-17T07:05:34.231Z,101523.91
2023-03-17T07:08:28.871Z,101522.68
2023-03-17T07:11:35.129Z,101524.77
2023-03-17T07:14:05.866Z,101527.39
2023-03-17T07:16:41.938Z,101527.38
2023-03-17T07:19:13.768Z,101531.21
2023-03-17T07:21:44.885Z,101532.44
2023-03-17T07:24:19.475Z,101531.11
2023-03-17T07:26:56.639Z,101531.73
2023-03-17T07:29:38.159Z,101533.08
2023-03-17T07:32:17.407Z,101533.20
2023-03-17T07:34:52.217Z,101536.02
2023-03-17T07:37:28.192Z,101532.88
2023-03-17T07:40:15.826Z,101529.89
2023-03-17T07:42:46.061Z,101530.36
2023-03-17T07:45:21.949Z,101532.23
2023-03-17T07:47:53.348Z,101526.93
2023-03-17T07:50:24.472Z,101527.23
2023-03-17T07:52:54.676Z,101518.08
2023-03-17T07:55:24.751Z,101518.60
2023-03-17T07:57:59.742Z,101517.13
2023-03-17T08:00:30.607Z,101515.71
2023-03-17T08:03:10.386Z,101524.92
2023-03-17T08:05:41.332Z,101525.02
2023-03-17T08:11:20.505Z,101526.92
2023-03-17T08:13:52.682Z,101528.63
2023-03-17T08:16:22.759Z,101526.23
2023-03-17T08:18:54.206Z,101527.40
2023-03-17T08:21:33.951Z,101525.39
2023-03-17T08:24:09.363Z,101520.20
2023-03-17T08:26:46.570Z,101518.12
2023-03-17T08:29:18.137Z,101525.30
2023-03-17T08:31:48.383Z,101520.91
2023-03-17T08:34:21.214Z,101520.40
2023-03-17T08:37:06.155Z,101519.30
2023-03-17T08:39:40.609Z,101519.10
2023-03-17T08:42:11.467Z,101519.36
2023-03-17T08:44:51.811Z,101521.21
2023-03-17T08:47:26.837Z,101516.73
2023-03-17T08:50:16.177Z,101512.05
2023-03-17T08:52:58.793Z,101514.55
2023-03-17T08:55:42.214Z,101516.38
2023-03-17T08:58:21.730Z,101516.73
2023-03-17T09:00:53.348Z,101512.90
2023-03-17T09:03:29.487Z,101511.59
2023-03-17T09:06:03.516Z,101507.80
2023-03-17T09:08:42.447Z,101503.64
2023-03-17T09:11:22.699Z,101505.08
2023-03-17T09:13:57.941Z,101507.23
2023-03-17T09:16:33.539Z,101501.17
2023-03-17T09:19:06.483Z,101502.14
2023-03-17T09:21:35.865Z,101501.88
2023-03-17T09:24:14.298Z,101502.84
2023-03-17T09:26:47.536Z,101501.86
2023-03-17T09:29:37.981Z,101501.56
2023-03-17T09:32:16.826Z,101500.91
2023-03-17T09:34:53.274Z,101502.53
2023-03-17T09:37:25.037Z,101504.65
2023-03-17T09:39:58.593Z,101498.37
2023-03-17T09:42:42.389Z,101498.73
2023-03-17T09:45:21.816Z,101502.41
2023-03-17T09:48:06.327Z,101502.27
2023-03-17T09:50:44.863Z,101499.38
2023-03-17T09:53:33.623Z,101500.13
2023-03-17T09:56:12.160Z,101496.23
2023-03-17T09:58:53.516Z,101493.16
2023-03-17T10:01:25.195Z,101492.84
2023-03-17T10:03:56.437Z,101492.48
2023-03-17T10:06:37.003Z,101492.32
2023-03-17T10:09:26.891Z,101498.33
2023-03-17T10:12:05.596Z,101491.90
2023-03-17T10:14:54.465Z,101489.37
2023-03-17T10:17:28.398Z,101491.02
2023-03-17T10:20:08.325Z,101486.86
2023-03-17T10:22:48.482Z,101486.38
2023-03-17T10:25:25.132Z,101482.66
2023-03-17T10:27:59.925Z,101478.48
2023-03-17T10:30:34.080Z,101477.70
2023-03-17T10:33:07.430Z,101475.92
2023-03-17T10:35:44.729Z,101474.48
2023-03-17T10:38:18.519Z,101473.20
2023-03-17T10:40:57.025Z,101472.82
2023-03-17T10:43:35.710Z,101471.67
2023-03-17T10:46:21.127Z,101474.55
2023-03-17T10:48:59.850Z,101470.98
2023-03-17T10:51:36.687Z,101469.75
2023-03-17T10:54:23.179Z,101469.67
2023-03-17T10:57:01.449Z,101467.52
2023-03-17T10:59:37.672Z,101465.70
2023-03-17T11:06:04.006Z,101459.53
2023-03-17T11:08:41.035Z,101456.71
2023-03-17T11:11:28.210Z,101456.65
2023-03-17T11:14:05.498Z,101454.79
2023-03-17T11:16:44.792Z,101447.16
2023-03-17T11:19:18.309Z,101443.23
2023-03-17T11:21:56.485Z,101442.55
2023-03-17T11:24:35.278Z,101436.80
2023-03-17T11:27:20.408Z,101433.36
2023-03-17T11:30:03.168Z,101434.98
2023-03-17T11:32:43.321Z,101436.09
2023-03-17T11:35:44.606Z,101430.97
2023-03-17T11:38:22.154Z,101425.58
2023-03-17T11:41:20.771Z,101423.64
2023-03-17T11:44:05.827Z,101418.08
2023-03-17T11:46:45.296Z,101416.38
2023-03-17T11:49:21.781Z,101411.05
2023-03-17T11:52:02.622Z,101409.91
2023-03-17T11:54:45.469Z,101411.90
2023-03-17T11:57:29.555Z,101412.11
2023-03-17T12:00:09.604Z,101412.27
2023-03-17T12:02:54.150Z,101410.20
2023-03-17T12:05:29.487Z,101413.96
2023-03-17T12:08:13.690Z,101410.27
2023-03-17T12:10:49.523Z,101417.11
2023-03-17T12:13:28.981Z,101409.23
2023-03-17T12:16:15.310Z,101409.61
2023-03-17T12:18:55.217Z,101412.25
2023-03-17T12:21:32.454Z,101413.99
2023-03-17T12:24:06.893Z,101410.98
2023-03-17T12:26:50.116Z,101415.11
2023-03-17T12:29:28.260Z,101416.23
2023-03-17T12:32:06.678Z,101414.80
2023-03-17T12:34:52.012Z,101415.52
2023-03-17T12:37:31.166Z,101412.39
2023-03-17T12:40:09.588Z,101411.81
2023-03-17T12:42:53.387Z,101411.78
2023-03-17T12:45:55.331Z,101414.39
2023-03-17T12:48:44.824Z,101411.23
2023-03-17T12:51:49.465Z,101409.87
2023-03-17T12:54:25.654Z,101410.24
2023-03-17T12:57:11.266Z,101407.79
2023-03-17T12:59:45.507Z,101406.45
2023-03-17T13:02:31.402Z,101403.30
2023-03-17T13:05:29.741Z,101401.96
2023-03-17T13:08:15.365Z,101399.27
2023-03-17T13:10:48.251Z,101396.03
2023-03-17T13:13:48.271Z,101397.19
2023-03-17T13:16:32.742Z,101400.89
2023-03-17T13:19:20.720Z,101399.68
2023-03-17T13:22:14.807Z,101400.05
2023-03-17T13:24:47.474Z,101400.39
2023-03-17T13:27:46.129Z,101399.27
2023-03-17T13:30:44.105Z,101400.20
2023-03-17T13:33:19.370Z,101402.13
2023-03-17T13:36:16.042Z,101399.17
2023-03-17T13:39:20.069Z,101401.79
2023-03-17T13:42:18.933Z,101402.65
2023-03-17T13:45:15.813Z,101402.44
2023-03-17T13:47:46.671Z,101398.11
2023-03-17T13:50:23.188Z,101395.39
2023-03-17T13:53:02.346Z,101388.63
2023-03-17T13:55:39.717Z,101389.70
2023-03-17T13:58:35.597Z,101383.56
2023-03-17T14:01:13.857Z,101377.27
2023-03-17T14:03:53.376Z,101383.36
2023-03-17T14:06:31.330Z,101381.64
2023-03-17T14:09:13.648Z,101379.91
2023-03-17T14:12:05.878Z,101383.98
2023-03-17T14:14:46.644Z,101378.89
2023-03-17T14:17:20.429Z,101375.51
2023-03-17T14:20:04.689Z,101375.84
2023-03-17T14:22:39.805Z,101376.80
2023-03-17T14:25:18.566Z,101375.23
2023-03-17T14:28:03.132Z,101373.30
2023-03-17T14:30:40.364Z,101375.17
2023-03-17T14:33:21.667Z,101375.16
2023-03-17T14:35:53.740Z,101367.43
2023-03-17T14:38:26.205Z,101368.66
2023-03-17T14:41:04.311Z,101370.66
2023-03-17T14:43:36.986Z,101367.45
2023-03-17T14:46:13.424Z,101365.27
2023-03-17T14:48:50.540Z,101365.94
2023-03-17T14:51:28.578Z,101365.85
2023-03-17T14:54:02.262Z,101375.20
2023-03-17T14:56:35.644Z,101372.14
2023-03-17T14:59:18.049Z,101373.29
2023-03-17T15:01:48.886Z,101371.70
2023-03-17T15:04:24.160Z,101366.48
2023-03-17T15:06:55.297Z,101377.67
2023-03-17T15:09:44.224Z,101372.73
2023-03-17T15:12:22.242Z,101371.29
2023-03-17T15:14:57.839Z,101376.15
2023-03-17T15:17:31.456Z,101367.11
2023-03-17T15:20:13.932Z,101370.76
2023-03-17T15:22:48.248Z,101374.52
2023-03-17T15:25:24.434Z,101369.11
2023-03-17T15:28:00.732Z,101372.76
2023-03-17T15:30:46.200Z,101370.57
2023-03-17T15:33:23.091Z,101372.83
2023-03-17T15:36:32.800Z,101379.35
2023-03-17T15:39:09.211Z,101377.38
2023-03-17T15:41:43.011Z,101377.61
2023-03-17T15:44:13.084Z,101380.02
2023-03-17T16:05:23.863Z,101393.64
2023-03-17T16:07:55.969Z,101395.98
2023-03-17T16:10:30.887Z,101399.54
2023-03-17T16:13:04.140Z,101404.39
2023-03-17T16:15:41.843Z,101402.49
2023-03-17T16:18:18.252Z,101404.60
2023-03-17T16:20:50.415Z,101401.54
2023-03-17T16:23:35.332Z,101403.36
2023-03-17T16:26:15.401Z,101403.38
2023-03-17T16:28:48.491Z,101404.23
2023-03-17T16:31:21.213Z,101408.95
2023-03-17T16:33:52.972Z,101416.50
2023-03-17T16:36:23.903Z,101413.23
2023-03-17T16:38:55.638Z,101420.00
2023-03-17T16:41:28.011Z,101420.83
2023-03-17T16:44:05.187Z,101420.98
2023-03-17T16:46:37.637Z,101420.91
2023-03-17T16:49:07.930Z,101424.08
2023-03-17T16:51:37.478Z,101425.21
2023-03-17T16:54:07.819Z,101427.95
2023-03-17T16:56:37.779Z,101427.92
2023-03-17T16:59:10.801Z,101431.91
2023-03-17T17:01:41.394Z,101435.23
2023-03-17T17:04:13.323Z,101438.42
2023-03-17T17:06:44.923Z,101439.52
2023-03-17T17:09:15.341Z,101444.80
2023-03-17T17:11:46.478Z,101447.05
2023-03-17T17:14:31.998Z,101449.11
2023-03-17T17:17:15.615Z,101445.39
2023-03-17T17:20:03.621Z,101447.50
2023-03-17T17:22:32.819Z,101453.73
2023-03-17T17:25:01.166Z,101452.92
2023-03-17T17:27:32.501Z,101451.63
2023-03-17T17:30:03.193Z,101456.31
2023-03-17T17:32:39.482Z,101461.83
2023-03-17T17:35:13.420Z,101461.00
2023-03-17T17:37:44.731Z,101466.61
2023-03-17T17:40:27.587Z,101470.51
2023-03-17T17:43:01.426Z,101467.95
2023-03-17T17:45:38.095Z,101468.00
2023-03-17T17:48:12.736Z,101479.86
2023-03-17T17:51:16.496Z,101481.76
2023-03-17T17:53:49.053Z,101484.20
2023-03-17T17:56:34.995Z,101482.67
2023-03-17T17:59:04.118Z,101483.20
2023-03-17T18:01:36.524Z,101485.46
2023-03-17T18:04:15.942Z,101482.23
2023-03-17T18:06:46.197Z,101484.77
2023-03-17T18:09:17.894Z,101485.87
2023-03-17T18:11:47.370Z,101492.66
2023-03-17T18:14:22.014Z,101497.98
2023-03-17T18:16:52.305Z,101504.52
2023-03-17T18:19:24.098Z,101503.89
2023-03-17T18:21:56.781Z,101507.16
2023-03-17T18:24:31.941Z,101506.27
2023-03-17T18:27:03.368Z,101502.63
2023-03-17T18:29:32.889Z,101504.21
2023-03-17T18:32:02.597Z,101504.13
2023-03-17T18:34:44.786Z,101504.88
2023-03-17T18:37:46.747Z,101506.13
2023-03-17T18:40:19.887Z,101511.41
2023-03-17T18:42:56.517Z,101511.82
2023-03-17T18:45:30.345Z,101510.72
2023-03-17T18:48:19.404Z,101513.38
2023-03-17T18:50:55.296Z,101515.36
2023-03-17T18:53:26.514Z,101516.39
2023-03-17T18:56:14.820Z,101514.14
2023-03-17T18:59:19.642Z,101513.98
2023-03-17T19:04:45.590Z,101515.70
2023-03-17T19:07:17.753Z,101518.77
2023-03-17T19:09:58.569Z,101518.45
2023-03-17T19:12:46.436Z,101518.87
2023-03-17T19:15:29.956Z,101520.16
2023-03-17T19:18:00.125Z,101522.27
2023-03-17T19:20:33.396Z,101525.08
2023-03-17T19:23:38.841Z,101520.90
2023-03-17T19:26:09.724Z,101523.19
2023-03-17T19:28:39.593Z,101525.82
2023-03-17T19:31:13.098Z,101526.34
2023-03-17T19:33:44.073Z,101522.63
2023-03-17T19:36:18.410Z,101525.08
2023-03-17T19:39:04.350Z,101522.52
2023-03-17T19:41:43.791Z,101522.60
2023-03-17T19:44:23.685Z,101521.42
2023-03-17T19:47:04.537Z,101516.95
2023-03-17T19:49:37.495Z,101515.95
2023-03-17T19:52:10.991Z,101514.92
2023-03-17T19:54:47.761Z,101514.40
2023-03-17T19:57:20.237Z,101510.58
2023-03-17T19:59:49.542Z,101509.30
2023-03-17T20:02:22.845Z,101509.11
2023-03-17T20:04:53.423Z,101516.41
2023-03-17T20:07:29.111Z,101509.71
2023-03-17T20:10:02.368Z,101514.40
2023-03-17T20:12:33.801Z,101517.86
2023-03-17T20:15:22.509Z,101516.96
2023-03-17T20:17:58.876Z,101518.16
2023-03-17T20:20:37.661Z,101517.80
2023-03-17T20:23:14.707Z,101511.98
2023-03-17T20:25:46.604Z,101518.76
2023-03-17T20:28:23.591Z,101521.88
2023-03-17T20:31:05.342Z,101523.61
2023-03-17T20:33:56.068Z,101521.16
2023-03-17T20:36:44.512Z,101522.02
2023-03-17T20:39:19.456Z,101520.42
2023-03-17T20:42:01.144Z,101520.39
2023-03-17T20:45:10.942Z,101518.63
2023-03-17T20:47:45.758Z,101517.39
2023-03-17T20:50:15.934Z,101518.38
2023-03-17T20:52:45.988Z,101518.88
2023-03-17T21:03:27.629Z,101504.79
2023-03-17T21:06:01.920Z,101504.22
2023-03-17T21:08:35.220Z,101502.08
2023-03-17T21:11:05.979Z,101501.35
2023-03-17T21:13:38.460Z,101499.06
2023-03-17T21:16:12.616Z,101500.63
2023-03-17T21:19:12.477Z,101500.80
2023-03-17T21:21:44.036Z,101500.10
2023-03-17T21:24:33.097Z,101503.06
2023-03-17T21:28:05.239Z,101493.64
2023-03-17T21:30:36.551Z,101495.86
2023-03-17T21:33:06.520Z,101495.16
2023-03-17T21:35:37.500Z,101496.20
2023-03-17T21:38:09.436Z,101494.10
2023-03-17T21:41:42.733Z,101499.52
2023-03-17T21:44:20.436Z,101497.38
2023-03-17T21:46:50.465Z,101498.29
2023-03-17T21:49:24.928Z,101494.79
2023-03-17T21:51:56.673Z,101489.33
2023-03-17T21:54:35.101Z,101493.66
2023-03-17T21:57:06.267Z,101489.81
2023-03-17T21:59:35.765Z,101486.80
2023-03-17T22:02:06.366Z,101481.67
2023-03-17T22:04:35.921Z,101481.60
2023-03-17T22:07:05.465Z,101480.87
2023-03-17T22:09:36.121Z,101479.80
2023-03-17T22:12:08.887Z,101482.42
2023-03-17T22:14:39.269Z,101485.20
2023-03-17T22:17:09.812Z,101483.24
2023-03-17T22:19:41.778Z,101485.16
2023-03-17T22:22:14.901Z,101486.23
2023-03-17T22:24:51.263Z,101485.33
2023-03-17T22:27:21.047Z,101487.75
2023-03-17T22:29:52.267Z,101486.47
2023-03-17T22:32:21.851Z,101486.83
2023-03-17T22:34:56.243Z,101488.23
2023-03-17T22:37:27.528Z,101493.83
2023-03-17T22:40:01.863Z,101491.07
2023-03-17T22:42:32.858Z,101492.63
2023-03-17T22:45:05.810Z,101492.11
2023-03-17T22:47:36.530Z,101490.16
2023-03-17T22:50:08.244Z,101493.27
2023-03-17T22:52:38.568Z,101489.73
2023-03-17T22:55:10.067Z,101489.88
2023-03-17T22:57:40.345Z,101479.67
2023-03-17T23:00:16.944Z,101478.05
2023-03-17T23:02:47.161Z,101481.34
2023-03-17T23:05:16.458Z,101479.77
2023-03-17T23:07:53.048Z,101479.23
2023-03-17T23:10:25.660Z,101478.32
2023-03-17T23:12:55.131Z,101477.43
2023-03-17T23:15:25.923Z,101479.83
2023-03-17T23:17:56.257Z,101483.66
2023-03-17T23:20:26.292Z,101481.04
2023-03-17T23:22:55.646Z,101484.84
2023-03-17T23:25:25.317Z,101478.85
2023-03-17T23:27:56.064Z,101479.65
2023-03-17T23:30:28.786Z,101478.86
2023-03-17T23:33:01.435Z,101476.91
2023-03-17T23:35:33.964Z,101474.61
2023-03-17T23:38:07.271Z,101475.32
2023-03-17T23:40:37.979Z,101477.08
2023-03-17T23:43:08.139Z,101478.27
2023-03-17T23:45:38.878Z,101476.01
2023-03-17T23:48:09.978Z,101476.88
2023-03-17T23:50:42.143Z,101474.43
2023-03-17T23:53:15.602Z,101471.34
2023-03-17T23:55:46.333Z,101473.95
2023-03-17T23:58:15.899Z,101475.31
